sensor_id;sensor_type;location;lat;lon;timestamp;pressure;altitude;pressure_sealevel;temperature;humidity
4735;BME280;2381;50.676;12.612;2022-10-13T00:00:49;98106.63;;;9.57;100.00
4735;BME280;2381;50.676;12.612;2022-10-13T00:03:52;98098.22;;;9.53;100.00
4735;BME280;2381;50.676;12.612;2022-10-13T00:06:56;98093.81;;;9.62;100.00
4735;BME280;2381;50.676;12.612;2022-10-13T00:09:59;98083.94;;;9.56;100.00
4735;BME280;2381;50.676;12.612;2022-10-13T00:13:02;98089.34;;;9.54;100.00
4735;BME280;2381;50.676;12.612;2022-10-13T00:16:07;98090.94;;;9.47;100.00
4735;BME280;2381;50.676;12.612;2022-10-13T00:19:11;98087.03;;;9.51;100.00
4735;BME280;2381;50.676;12.612;2022-10-13T00:22:15;98092.91;;;9.45;100.00
4735;BME280;2381;50.676;12.612;2022-10-13T00:25:19;98093.94;;;9.52;100.00
4735;BME280;2381;50.676;12.612;2022-10-13T00:28:23;98092.59;;;9.48;100.00
4735;BME280;2381;50.676;12.612;2022-10-13T00:31:30;98097.38;;;9.53;100.00
4735;BME280;2381;50.676;12.612;2022-10-13T00:34:35;98102.63;;;9.53;100.00
4735;BME280;2381;50.676;12.612;2022-10-13T00:37:38;98105.41;;;9.43;100.00
4735;BME280;2381;50.676;12.612;2022-10-13T00:40:45;98094.22;;;9.41;100.00
4735;BME280;2381;50.676;12.612;2022-10-13T00:43:57;98084.66;;;9.40;100.00
4735;BME280;2381;50.676;12.612;2022-10-13T00:47:02;98087.66;;;9.45;100.00
4735;BME280;2381;50.676;12.612;2022-10-13T00:50:08;98083.31;;;9.36;100.00
4735;BME280;2381;50.676;12.612;2022-10-13T00:53:14;98079.72;;;9.37;100.00
4735;BME280;2381;50.676;12.612;2022-10-13T00:56:19;98083.66;;;9.33;100.00
4735;BME280;2381;50.676;12.612;2022-10-13T00:59:25;98084.78;;;9.31;100.00
4735;BME280;2381;50.676;12.612;2022-10-13T01:02:34;98094.34;;;9.40;100.00
4735;BME280;2381;50.676;12.612;2022-10-13T01:05:40;98090.03;;;9.31;100.00
4735;BME280;2381;50.676;12.612;2022-10-13T01:08:43;98078.28;;;9.17;100.00
4735;BME280;2381;50.676;12.612;2022-10-13T01:11:59;98090.09;;;9.13;100.00
4735;BME280;2381;50.676;12.612;2022-10-13T01:15:10;98104.28;;;9.20;100.00
4735;BME280;2381;50.676;12.612;2022-10-13T01:18:21;98104.03;;;9.31;100.00
4735;BME280;2381;50.676;12.612;2022-10-13T01:21:32;98110.34;;;9.21;100.00
4735;BME280;2381;50.676;12.612;2022-10-13T01:24:44;98114.47;;;9.23;100.00
4735;BME280;2381;50.676;12.612;2022-10-13T01:28:02;98111.66;;;9.25;100.00
4735;BME280;2381;50.676;12.612;2022-10-13T01:31:16;98120.44;;;9.33;100.00
4735;BME280;2381;50.676;12.612;2022-10-13T01:34:27;98117.75;;;9.25;100.00
4735;BME280;2381;50.676;12.612;2022-10-13T01:37:40;98119.09;;;9.29;100.00
4735;BME280;2381;50.676;12.612;2022-10-13T01:40:50;98128.06;;;9.19;100.00
4735;BME280;2381;50.676;12.612;2022-10-13T01:44:02;98116.25;;;9.15;100.00
4735;BME280;2381;50.676;12.612;2022-10-13T01:47:10;98124.56;;;9.10;100.00
4735;BME280;2381;50.676;12.612;2022-10-13T01:50:16;98126.81;;;9.05;100.00
4735;BME280;2381;50.676;12.612;2022-10-13T01:53:21;98120.91;;;9.03;100.00
4735;BME280;2381;50.676;12.612;2022-10-13T01:56:26;98112.88;;;9.05;100.00
4735;BME280;2381;50.676;12.612;2022-10-13T01:59:31;98117.09;;;8.98;100.00
4735;BME280;2381;50.676;12.612;2022-10-13T02:02:45;98124.13;;;9.15;100.00
4735;BME280;2381;50.676;12.612;2022-10-13T02:05:54;98120.50;;;9.16;100.00
4735;BME280;2381;50.676;12.612;2022-10-13T02:09:03;98121.72;;;9.29;100.00
4735;BME280;2381;50.676;12.612;2022-10-13T02:12:11;98129.66;;;9.37;100.00
4735;BME280;2381;50.676;12.612;2022-10-13T02:15:20;98130.19;;;9.41;100.00
4735;BME280;2381;50.676;12.612;2022-10-13T02:18:30;98139.91;;;9.48;100.00
4735;BME280;2381;50.676;12.612;2022-10-13T02:21:34;98146.53;;;9.52;100.00
4735;BME280;2381;50.676;12.612;2022-10-13T02:24:37;98154.41;;;9.52;100.00
4735;BME280;2381;50.676;12.612;2022-10-13T02:27:41;98156.19;;;9.52;100.00
4735;BME280;2381;50.676;12.612;2022-10-13T02:30:44;98163.31;;;9.59;100.00
4735;BME280;2381;50.676;12.612;2022-10-13T02:33:49;98161.97;;;9.55;100.00
4735;BME280;2381;50.676;12.612;2022-10-13T02:36:52;98161.59;;;9.50;100.00
4735;BME280;2381;50.676;12.612;2022-10-13T02:39:55;98163.78;;;9.55;100.00
4735;BME280;2381;50.676;12.612;2022-10-13T02:42:58;98164.56;;;9.47;100.00
4735;BME280;2381;50.676;12.612;2022-10-13T02:46:01;98164.94;;;9.52;100.00
4735;BME280;2381;50.676;12.612;2022-10-13T02:49:05;98169.88;;;9.55;100.00
4735;BME280;2381;50.676;12.612;2022-10-13T02:52:08;98174.97;;;9.57;100.00
4735;BME280;2381;50.676;12.612;2022-10-13T02:55:15;98173.53;;;9.62;100.00
4735;BME280;2381;50.676;12.612;2022-10-13T02:58:19;98177.94;;;9.62;100.00
4735;BME280;2381;50.676;12.612;2022-10-13T03:01:22;98173.16;;;9.57;100.00
4735;BME280;2381;50.676;12.612;2022-10-13T03:04:26;98176.13;;;9.54;100.00
4735;BME280;2381;50.676;12.612;2022-10-13T03:07:32;98175.06;;;9.47;100.00
4735;BME280;2381;50.676;12.612;2022-10-13T03:10:36;98179.78;;;9.61;100.00
4735;BME280;2381;50.676;12.612;2022-10-13T03:13:39;98177.75;;;9.55;100.00
4735;BME280;2381;50.676;12.612;2022-10-13T03:16:41;98172.13;;;9.50;100.00
4735;BME280;2381;50.676;12.612;2022-10-13T03:19:47;98173.44;;;9.46;100.00
4735;BME280;2381;50.676;12.612;2022-10-13T03:22:51;98164.22;;;9.42;100.00
4735;BME280;2381;50.676;12.612;2022-10-13T03:25:54;98171.72;;;9.37;100.00
4735;BME280;2381;50.676;12.612;2022-10-13T03:28:57;98168.78;;;9.40;100.00
4735;BME280;2381;50.676;12.612;2022-10-13T03:32:00;98174.03;;;9.40;100.00
4735;BME280;2381;50.676;12.612;2022-10-13T03:35:05;98177.22;;;9.26;100.00
4735;BME280;2381;50.676;12.612;2022-10-13T03:38:08;98165.91;;;9.26;100.00
4735;BME280;2381;50.676;12.612;2022-10-13T03:41:14;98166.66;;;9.18;100.00
4735;BME280;2381;50.676;12.612;2022-10-13T03:44:20;98156.53;;;9.23;100.00
4735;BME280;2381;50.676;12.612;2022-10-13T03:47:23;98156.97;;;9.19;100.00
4735;BME280;2381;50.676;12.612;2022-10-13T03:50:27;98162.91;;;9.21;100.00
4735;BME280;2381;50.676;12.612;2022-10-13T03:53:30;98160.72;;;9.16;100.00
4735;BME280;2381;50.676;12.612;2022-10-13T03:56:33;98158.41;;;9.13;100.00
4735;BME280;2381;50.676;12.612;2022-10-13T03:59:38;98162.69;;;9.14;100.00
4735;BME280;2381;50.676;12.612;2022-10-13T04:02:41;98155.47;;;9.16;100.00
4735;BME280;2381;50.676;12.612;2022-10-13T04:05:46;98146.25;;;9.12;100.00
4735;BME280;2381;50.676;12.612;2022-10-13T04:08:50;98135.69;;;9.04;100.00
4735;BME280;2381;50.676;12.612;2022-10-13T04:11:53;98128.66;;;9.05;100.00
4735;BME280;2381;50.676;12.612;2022-10-13T04:14:56;98127.16;;;9.02;100.00
4735;BME280;2381;50.676;12.612;2022-10-13T04:17:59;98117.41;;;8.95;100.00
4735;BME280;2381;50.676;12.612;2022-10-13T04:21:07;98117.28;;;8.79;100.00
4735;BME280;2381;50.676;12.612;2022-10-13T04:24:11;98119.44;;;8.83;100.00
4735;BME280;2381;50.676;12.612;2022-10-13T04:27:15;98125.69;;;8.82;100.00
4735;BME280;2381;50.676;12.612;2022-10-13T04:30:19;98117.38;;;8.69;100.00
4735;BME280;2381;50.676;12.612;2022-10-13T04:33:22;98125.84;;;8.63;100.00
4735;BME280;2381;50.676;12.612;2022-10-13T04:36:26;98120.34;;;8.74;100.00
4735;BME280;2381;50.676;12.612;2022-10-13T04:39:29;98117.75;;;8.57;100.00
4735;BME280;2381;50.676;12.612;2022-10-13T04:42:32;98110.00;;;8.73;100.00
4735;BME280;2381;50.676;12.612;2022-10-13T04:45:35;98111.41;;;8.67;100.00
4735;BME280;2381;50.676;12.612;2022-10-13T04:48:38;98099.28;;;8.66;100.00
4735;BME280;2381;50.676;12.612;2022-10-13T04:51:43;98083.25;;;8.69;100.00
4735;BME280;2381;50.676;12.612;2022-10-13T04:54:46;98078.91;;;8.60;100.00
4735;BME280;2381;50.676;12.612;2022-10-13T04:57:49;98073.72;;;8.51;100.00
4735;BME280;2381;50.676;12.612;2022-10-13T05:00:52;98063.31;;;8.41;100.00
4735;BME280;2381;50.676;12.612;2022-10-13T05:03:56;98059.72;;;8.42;100.00
4735;BME280;2381;50.676;12.612;2022-10-13T05:07:01;98044.94;;;8.41;100.00
4735;BME280;2381;50.676;12.612;2022-10-13T05:10:19;98040.34;;;8.43;100.00
4735;BME280;2381;50.676;12.612;2022-10-13T05:13:22;98041.88;;;8.28;100.00
4735;BME280;2381;50.676;12.612;2022-10-13T05:16:31;98047.56;;;8.41;100.00
4735;BME280;2381;50.676;12.612;2022-10-13T05:19:33;98047.63;;;8.32;100.00
4735;BME280;2381;50.676;12.612;2022-10-13T05:22:38;98045.47;;;8.27;100.00
4735;BME280;2381;50.676;12.612;2022-10-13T05:25:41;98061.06;;;8.29;100.00
4735;BME280;2381;50.676;12.612;2022-10-13T05:28:47;98060.09;;;8.30;100.00
4735;BME280;2381;50.676;12.612;2022-10-13T05:31:50;98066.63;;;8.26;100.00
4735;BME280;2381;50.676;12.612;2022-10-13T05:34:53;98065.63;;;8.27;100.00
4735;BME280;2381;50.676;12.612;2022-10-13T05:37:57;98073.66;;;8.25;100.00
4735;BME280;2381;50.676;12.612;2022-10-13T05:41:01;98079.66;;;8.35;100.00
4735;BME280;2381;50.676;12.612;2022-10-13T05:44:07;98098.09;;;8.43;100.00
4735;BME280;2381;50.676;12.612;2022-10-13T05:47:15;98108.97;;;8.31;100.00
4735;BME280;2381;50.676;12.612;2022-10-13T05:50:18;98119.00;;;8.35;100.00
4735;BME280;2381;50.676;12.612;2022-10-13T05:53:24;98122.69;;;8.42;100.00
4735;BME280;2381;50.676;12.612;2022-10-13T05:56:31;98135.69;;;8.44;100.00
4735;BME280;2381;50.676;12.612;2022-10-13T05:59:41;98135.91;;;8.50;100.00
4735;BME280;2381;50.676;12.612;2022-10-13T06:02:49;98141.06;;;8.42;100.00
4735;BME280;2381;50.676;12.612;2022-10-13T06:05:55;98148.34;;;8.48;100.00
4735;BME280;2381;50.676;12.612;2022-10-13T06:09:00;98156.59;;;8.53;100.00
4735;BME280;2381;50.676;12.612;2022-10-13T06:12:03;98170.47;;;8.63;100.00
4735;BME280;2381;50.676;12.612;2022-10-13T06:15:07;98177.06;;;8.67;100.00
4735;BME280;2381;50.676;12.612;2022-10-13T06:18:10;98177.50;;;8.63;100.00
4735;BME280;2381;50.676;12.612;2022-10-13T06:21:13;98186.59;;;8.68;100.00
4735;BME280;2381;50.676;12.612;2022-10-13T06:24:17;98205.22;;;8.75;100.00
4735;BME280;2381;50.676;12.612;2022-10-13T06:27:20;98216.09;;;8.80;100.00
4735;BME280;2381;50.676;12.612;2022-10-13T06:30:27;98225.16;;;8.85;100.00
4735;BME280;2381;50.676;12.612;2022-10-13T06:33:30;98232.91;;;8.87;100.00
4735;BME280;2381;50.676;12.612;2022-10-13T06:36:33;98235.16;;;8.82;100.00
4735;BME280;2381;50.676;12.612;2022-10-13T06:39:38;98247.25;;;8.92;100.00
4735;BME280;2381;50.676;12.612;2022-10-13T06:42:41;98259.22;;;8.77;100.00
4735;BME280;2381;50.676;12.612;2022-10-13T06:45:44;98255.22;;;8.56;100.00
4735;BME280;2381;50.676;12.612;2022-10-13T06:48:48;98258.78;;;8.64;100.00
4735;BME280;2381;50.676;12.612;2022-10-13T06:51:51;98267.31;;;8.66;100.00
4735;BME280;2381;50.676;12.612;2022-10-13T06:54:55;98284.72;;;8.67;100.00
4735;BME280;2381;50.676;12.612;2022-10-13T06:57:58;98286.53;;;8.67;100.00
4735;BME280;2381;50.676;12.612;2022-10-13T07:01:01;98301.84;;;8.71;100.00
4735;BME280;2381;50.676;12.612;2022-10-13T07:04:04;98311.16;;;8.83;100.00
4735;BME280;2381;50.676;12.612;2022-10-13T07:07:07;98311.53;;;8.88;100.00
4735;BME280;2381;50.676;12.612;2022-10-13T07:10:12;98321.03;;;8.99;100.00
4735;BME280;2381;50.676;12.612;2022-10-13T07:13:15;98334.34;;;9.15;100.00
4735;BME280;2381;50.676;12.612;2022-10-13T07:16:18;98337.78;;;9.33;100.00
4735;BME280;2381;50.676;12.612;2022-10-13T07:19:21;98347.09;;;9.62;100.00
4735;BME280;2381;50.676;12.612;2022-10-13T07:22:25;98353.84;;;9.82;100.00
4735;BME280;2381;50.676;12.612;2022-10-13T07:25:29;98366.56;;;9.95;100.00
4735;BME280;2381;50.676;12.612;2022-10-13T07:28:32;98368.00;;;10.07;100.00
4735;BME280;2381;50.676;12.612;2022-10-13T07:31:35;98383.72;;;10.16;100.00
4735;BME280;2381;50.676;12.612;2022-10-13T07:34:38;98385.06;;;10.20;100.00
4735;BME280;2381;50.676;12.612;2022-10-13T07:37:41;98383.16;;;10.30;100.00
4735;BME280;2381;50.676;12.612;2022-10-13T07:40:46;98380.88;;;10.35;100.00
4735;BME280;2381;50.676;12.612;2022-10-13T07:43:53;98389.19;;;10.48;100.00
4735;BME280;2381;50.676;12.612;2022-10-13T07:46:56;98390.28;;;10.63;100.00
4735;BME280;2381;50.676;12.612;2022-10-13T07:49:59;98381.47;;;10.88;100.00
4735;BME280;2381;50.676;12.612;2022-10-13T07:53:02;98381.03;;;11.00;100.00
4735;BME280;2381;50.676;12.612;2022-10-13T07:56:10;98379.56;;;11.06;100.00
4735;BME280;2381;50.676;12.612;2022-10-13T07:59:13;98376.66;;;11.17;100.00
4735;BME280;2381;50.676;12.612;2022-10-13T08:02:16;98368.44;;;11.28;100.00
4735;BME280;2381;50.676;12.612;2022-10-13T08:05:19;98366.00;;;11.42;100.00
4735;BME280;2381;50.676;12.612;2022-10-13T08:08:22;98348.66;;;11.40;100.00
4735;BME280;2381;50.676;12.612;2022-10-13T08:11:27;98345.22;;;11.55;100.00
4735;BME280;2381;50.676;12.612;2022-10-13T08:14:30;98342.13;;;11.84;100.00
4735;BME280;2381;50.676;12.612;2022-10-13T08:17:33;98326.94;;;11.94;100.00
4735;BME280;2381;50.676;12.612;2022-10-13T08:20:38;98302.53;;;12.00;100.00
4735;BME280;2381;50.676;12.612;2022-10-13T08:23:44;98284.81;;;12.24;100.00
4735;BME280;2381;50.676;12.612;2022-10-13T08:26:48;98256.25;;;12.28;100.00
4735;BME280;2381;50.676;12.612;2022-10-13T08:29:51;98236.19;;;12.41;100.00
4735;BME280;2381;50.676;12.612;2022-10-13T08:32:55;98198.38;;;12.49;100.00
4735;BME280;2381;50.676;12.612;2022-10-13T08:35:58;98177.44;;;12.70;100.00
4735;BME280;2381;50.676;12.612;2022-10-13T08:39:01;98139.06;;;12.74;100.00
4735;BME280;2381;50.676;12.612;2022-10-13T08:42:13;98093.34;;;12.87;100.00
4735;BME280;2381;50.676;12.612;2022-10-13T08:45:22;98031.78;;;13.01;100.00
4735;BME280;2381;50.676;12.612;2022-10-13T08:48:43;97952.00;;;13.12;100.00
4735;BME280;2381;50.676;12.612;2022-10-13T08:51:46;97890.81;;;13.15;100.00
4735;BME280;2381;50.676;12.612;2022-10-13T08:54:49;97844.47;;;13.19;100.00
4735;BME280;2381;50.676;12.612;2022-10-13T08:57:55;97811.16;;;13.25;100.00
4735;BME280;2381;50.676;12.612;2022-10-13T09:01:11;97769.72;;;13.32;100.00
4735;BME280;2381;50.676;12.612;2022-10-13T09:04:25;97754.16;;;13.43;100.00
4735;BME280;2381;50.676;12.612;2022-10-13T09:07:31;97721.00;;;13.47;100.00
4735;BME280;2381;50.676;12.612;2022-10-13T09:10:45;97715.97;;;13.52;100.00
4735;BME280;2381;50.676;12.612;2022-10-13T09:13:55;97711.13;;;13.56;100.00
4735;BME280;2381;50.676;12.612;2022-10-13T09:17:13;97701.59;;;13.61;100.00
4735;BME280;2381;50.676;12.612;2022-10-13T09:20:20;97702.63;;;13.60;100.00
4735;BME280;2381;50.676;12.612;2022-10-13T09:23:23;97688.56;;;13.60;100.00
4735;BME280;2381;50.676;12.612;2022-10-13T09:26:28;97685.09;;;13.59;100.00
4735;BME280;2381;50.676;12.612;2022-10-13T09:29:32;97689.59;;;13.65;100.00
4735;BME280;2381;50.676;12.612;2022-10-13T09:32:35;97692.50;;;13.70;100.00
4735;BME280;2381;50.676;12.612;2022-10-13T09:35:39;97692.28;;;13.72;100.00
4735;BME280;2381;50.676;12.612;2022-10-13T09:39:02;97676.97;;;13.95;100.00
4735;BME280;2381;50.676;12.612;2022-10-13T09:42:19;97677.63;;;14.03;100.00
4735;BME280;2381;50.676;12.612;2022-10-13T09:45:25;97672.34;;;14.03;100.00
4735;BME280;2381;50.676;12.612;2022-10-13T09:48:34;97660.91;;;14.03;100.00
4735;BME280;2381;50.676;12.612;2022-10-13T09:51:40;97673.97;;;14.04;100.00
4735;BME280;2381;50.676;12.612;2022-10-13T09:54:53;97665.22;;;14.10;100.00
4735;BME280;2381;50.676;12.612;2022-10-13T09:58:03;97647.94;;;14.14;100.00
4735;BME280;2381;50.676;12.612;2022-10-13T10:01:17;97660.03;;;14.23;100.00
4735;BME280;2381;50.676;12.612;2022-10-13T10:04:25;97656.38;;;14.24;100.00
4735;BME280;2381;50.676;12.612;2022-10-13T10:07:31;97654.13;;;14.21;100.00
4735;BME280;2381;50.676;12.612;2022-10-13T10:10:36;97656.13;;;14.19;100.00
4735;BME280;2381;50.676;12.612;2022-10-13T10:13:42;97651.84;;;14.18;100.00
4735;BME280;2381;50.676;12.612;2022-10-13T10:16:50;97648.44;;;14.24;100.00
4735;BME280;2381;50.676;12.612;2022-10-13T10:20:02;97638.44;;;14.26;100.00
4735;BME280;2381;50.676;12.612;2022-10-13T10:23:13;97633.56;;;14.30;100.00
4735;BME280;2381;50.676;12.612;2022-10-13T10:26:19;97623.16;;;14.28;100.00
4735;BME280;2381;50.676;12.612;2022-10-13T10:29:39;97614.03;;;14.37;100.00
4735;BME280;2381;50.676;12.612;2022-10-13T10:32:52;97611.63;;;14.42;100.00
4735;BME280;2381;50.676;12.612;2022-10-13T10:36:05;97612.66;;;14.54;100.00
4735;BME280;2381;50.676;12.612;2022-10-13T10:39:25;97618.59;;;14.63;100.00
4735;BME280;2381;50.676;12.612;2022-10-13T10:42:43;97615.16;;;14.75;100.00
4735;BME280;2381;50.676;12.612;2022-10-13T10:45:56;97614.31;;;14.75;100.00
4735;BME280;2381;50.676;12.612;2022-10-13T10:49:16;97607.63;;;14.79;100.00
4735;BME280;2381;50.676;12.612;2022-10-13T10:52:23;97609.44;;;14.85;100.00
4735;BME280;2381;50.676;12.612;2022-10-13T10:55:34;97596.19;;;14.91;100.00
4735;BME280;2381;50.676;12.612;2022-10-13T10:58:44;97600.06;;;14.95;100.00
4735;BME280;2381;50.676;12.612;2022-10-13T11:02:01;97599.06;;;14.96;100.00
4735;BME280;2381;50.676;12.612;2022-10-13T11:05:08;97597.19;;;14.97;100.00
4735;BME280;2381;50.676;12.612;2022-10-13T11:08:25;97597.00;;;14.92;100.00
4735;BME280;2381;50.676;12.612;2022-10-13T11:11:38;97605.56;;;14.81;100.00
4735;BME280;2381;50.676;12.612;2022-10-13T11:14:46;97604.75;;;14.80;100.00
4735;BME280;2381;50.676;12.612;2022-10-13T11:17:50;97584.97;;;14.76;100.00
4735;BME280;2381;50.676;12.612;2022-10-13T11:20:57;97596.59;;;14.75;100.00
4735;BME280;2381;50.676;12.612;2022-10-13T11:24:00;97584.13;;;14.76;100.00
4735;BME280;2381;50.676;12.612;2022-10-13T11:27:18;97590.03;;;14.71;100.00
4735;BME280;2381;50.676;12.612;2022-10-13T11:30:45;97583.09;;;14.70;100.00
4735;BME280;2381;50.676;12.612;2022-10-13T11:33:55;97588.81;;;14.67;100.00
4735;BME280;2381;50.676;12.612;2022-10-13T11:37:01;97586.16;;;14.67;100.00
4735;BME280;2381;50.676;12.612;2022-10-13T11:40:19;97591.06;;;14.64;100.00
4735;BME280;2381;50.676;12.612;2022-10-13T11:43:37;97583.50;;;14.61;100.00
4735;BME280;2381;50.676;12.612;2022-10-13T11:46:54;97590.03;;;14.58;100.00
4735;BME280;2381;50.676;12.612;2022-10-13T11:50:06;97577.38;;;14.60;100.00
4735;BME280;2381;50.676;12.612;2022-10-13T11:53:20;97579.84;;;14.62;100.00
4735;BME280;2381;50.676;12.612;2022-10-13T11:56:32;97582.28;;;14.57;100.00
4735;BME280;2381;50.676;12.612;2022-10-13T11:59:44;97578.59;;;14.51;100.00
4735;BME280;2381;50.676;12.612;2022-10-13T12:02:49;97570.03;;;14.49;100.00
4735;BME280;2381;50.676;12.612;2022-10-13T12:05:56;97571.66;;;14.50;100.00
4735;BME280;2381;50.676;12.612;2022-10-13T12:09:04;97568.38;;;14.48;100.00
4735;BME280;2381;50.676;12.612;2022-10-13T12:12:12;97566.34;;;14.44;100.00
4735;BME280;2381;50.676;12.612;2022-10-13T12:15:30;97562.88;;;14.43;100.00
4735;BME280;2381;50.676;12.612;2022-10-13T12:18:35;97555.56;;;14.45;100.00
4735;BME280;2381;50.676;12.612;2022-10-13T12:21:48;97557.78;;;14.48;100.00
4735;BME280;2381;50.676;12.612;2022-10-13T12:24:59;97558.22;;;14.52;100.00
4735;BME280;2381;50.676;12.612;2022-10-13T12:28:03;97553.13;;;14.57;100.00
4735;BME280;2381;50.676;12.612;2022-10-13T12:31:17;97549.25;;;14.59;100.00
4735;BME280;2381;50.676;12.612;2022-10-13T12:34:24;97548.84;;;14.62;100.00
4735;BME280;2381;50.676;12.612;2022-10-13T12:37:29;97545.19;;;14.63;100.00
4735;BME280;2381;50.676;12.612;2022-10-13T12:40:35;97545.97;;;14.64;100.00
4735;BME280;2381;50.676;12.612;2022-10-13T12:43:38;97538.25;;;14.75;100.00
4735;BME280;2381;50.676;12.612;2022-10-13T12:46:43;97542.75;;;14.88;100.00
4735;BME280;2381;50.676;12.612;2022-10-13T12:49:47;97533.56;;;15.03;100.00
4735;BME280;2381;50.676;12.612;2022-10-13T12:52:51;97527.59;;;15.27;100.00
4735;BME280;2381;50.676;12.612;2022-10-13T12:55:57;97519.81;;;15.52;100.00
4735;BME280;2381;50.676;12.612;2022-10-13T12:59:01;97526.75;;;15.59;100.00
4735;BME280;2381;50.676;12.612;2022-10-13T13:02:20;97524.06;;;15.65;100.00
4735;BME280;2381;50.676;12.612;2022-10-13T13:05:29;97522.25;;;15.66;100.00
4735;BME280;2381;50.676;12.612;2022-10-13T13:08:36;97526.59;;;15.41;100.00
4735;BME280;2381;50.676;12.612;2022-10-13T13:11:41;97526.78;;;15.20;100.00
4735;BME280;2381;50.676;12.612;2022-10-13T13:14:45;97529.25;;;15.22;100.00
4735;BME280;2381;50.676;12.612;2022-10-13T13:17:50;97515.56;;;15.18;100.00
4735;BME280;2381;50.676;12.612;2022-10-13T13:20:59;97520.06;;;15.18;100.00
4735;BME280;2381;50.676;12.612;2022-10-13T13:24:04;97515.41;;;15.13;100.00
4735;BME280;2381;50.676;12.612;2022-10-13T13:27:34;97515.00;;;15.03;100.00
4735;BME280;2381;50.676;12.612;2022-10-13T13:30:38;97521.13;;;14.97;100.00
4735;BME280;2381;50.676;12.612;2022-10-13T13:33:41;97526.19;;;14.92;100.00
4735;BME280;2381;50.676;12.612;2022-10-13T13:36:44;97527.03;;;14.86;100.00
4735;BME280;2381;50.676;12.612;2022-10-13T13:39:47;97522.34;;;14.82;100.00
4735;BME280;2381;50.676;12.612;2022-10-13T13:42:52;97517.47;;;14.79;100.00
4735;BME280;2381;50.676;12.612;2022-10-13T13:45:55;97518.69;;;14.76;100.00
4735;BME280;2381;50.676;12.612;2022-10-13T13:48:59;97513.16;;;14.71;100.00
4735;BME280;2381;50.676;12.612;2022-10-13T13:52:02;97513.16;;;14.71;100.00
4735;BME280;2381;50.676;12.612;2022-10-13T13:55:06;97508.06;;;14.63;100.00
4735;BME280;2381;50.676;12.612;2022-10-13T13:58:10;97509.69;;;14.64;100.00
4735;BME280;2381;50.676;12.612;2022-10-13T14:01:14;97512.53;;;14.56;100.00
4735;BME280;2381;50.676;12.612;2022-10-13T14:04:17;97511.53;;;14.57;100.00
4735;BME280;2381;50.676;12.612;2022-10-13T14:07:19;97497.47;;;14.57;100.00
4735;BME280;2381;50.676;12.612;2022-10-13T14:10:25;97493.16;;;14.56;100.00
4735;BME280;2381;50.676;12.612;2022-10-13T14:13:29;97475.22;;;14.51;100.00
4735;BME280;2381;50.676;12.612;2022-10-13T14:16:32;97478.50;;;14.53;100.00
4735;BME280;2381;50.676;12.612;2022-10-13T14:19:40;97476.88;;;14.52;100.00
4735;BME280;2381;50.676;12.612;2022-10-13T14:22:43;97475.22;;;14.51;100.00
4735;BME280;2381;50.676;12.612;2022-10-13T14:25:47;97474.19;;;14.46;100.00
4735;BME280;2381;50.676;12.612;2022-10-13T14:28:52;97474.41;;;14.44;100.00
4735;BME280;2381;50.676;12.612;2022-10-13T14:31:55;97480.31;;;14.46;100.00
4735;BME280;2381;50.676;12.612;2022-10-13T14:34:58;97478.88;;;14.50;100.00
4735;BME280;2381;50.676;12.612;2022-10-13T14:38:01;97473.59;;;14.50;100.00
4735;BME280;2381;50.676;12.612;2022-10-13T14:41:05;97484.00;;;14.52;100.00
4735;BME280;2381;50.676;12.612;2022-10-13T14:44:10;97471.34;;;14.47;100.00
4735;BME280;2381;50.676;12.612;2022-10-13T14:47:18;97470.94;;;14.50;100.00
4735;BME280;2381;50.676;12.612;2022-10-13T14:50:22;97474.59;;;14.49;100.00
4735;BME280;2381;50.676;12.612;2022-10-13T14:53:31;97465.44;;;14.52;100.00
4735;BME280;2381;50.676;12.612;2022-10-13T14:56:34;97469.72;;;14.53;100.00
4735;BME280;2381;50.676;12.612;2022-10-13T14:59:39;97462.38;;;14.55;100.00
4735;BME280;2381;50.676;12.612;2022-10-13T15:02:42;97459.72;;;14.55;100.00
4735;BME280;2381;50.676;12.612;2022-10-13T15:05:45;97470.75;;;14.58;100.00
4735;BME280;2381;50.676;12.612;2022-10-13T15:08:51;97472.19;;;14.48;100.00
4735;BME280;2381;50.676;12.612;2022-10-13T15:11:57;97469.13;;;14.51;100.00
4735;BME280;2381;50.676;12.612;2022-10-13T15:15:02;97469.31;;;14.43;100.00
4735;BME280;2381;50.676;12.612;2022-10-13T15:18:05;97462.38;;;14.48;100.00
4735;BME280;2381;50.676;12.612;2022-10-13T15:21:08;97464.00;;;14.49;100.00
4735;BME280;2381;50.676;12.612;2022-10-13T15:24:11;97461.97;;;14.38;100.00
4735;BME280;2381;50.676;12.612;2022-10-13T15:27:16;97460.34;;;14.37;100.00
4735;BME280;2381;50.676;12.612;2022-10-13T15:30:20;97466.06;;;14.34;100.00
4735;BME280;2381;50.676;12.612;2022-10-13T15:33:23;97444.44;;;14.31;100.00
4735;BME280;2381;50.676;12.612;2022-10-13T15:36:26;97460.75;;;14.21;100.00
4735;BME280;2381;50.676;12.612;2022-10-13T15:39:28;97460.34;;;14.24;100.00
4735;BME280;2381;50.676;12.612;2022-10-13T15:42:31;97463.19;;;14.23;100.00
4735;BME280;2381;50.676;12.612;2022-10-13T15:45:36;97453.78;;;14.20;100.00
4735;BME280;2381;50.676;12.612;2022-10-13T15:48:39;97454.16;;;14.11;100.00
4735;BME280;2381;50.676;12.612;2022-10-13T15:51:42;97452.53;;;14.10;100.00
4735;BME280;2381;50.676;12.612;2022-10-13T15:54:45;97446.63;;;14.01;100.00
4735;BME280;2381;50.676;12.612;2022-10-13T15:57:51;97449.03;;;13.96;100.00
4735;BME280;2381;50.676;12.612;2022-10-13T16:00:56;97443.94;;;13.88;100.00
4735;BME280;2381;50.676;12.612;2022-10-13T16:03:59;97458.59;;;13.91;100.00
4735;BME280;2381;50.676;12.612;2022-10-13T16:07:02;97452.84;;;13.74;100.00
4735;BME280;2381;50.676;12.612;2022-10-13T16:10:06;97449.00;;;13.70;100.00
4735;BME280;2381;50.676;12.612;2022-10-13T16:13:13;97449.38;;;13.74;100.00
4735;BME280;2381;50.676;12.612;2022-10-13T16:16:18;97448.16;;;13.63;100.00
4735;BME280;2381;50.676;12.612;2022-10-13T16:19:21;97450.78;;;13.63;100.00
4735;BME280;2381;50.676;12.612;2022-10-13T16:22:24;97452.41;;;13.58;100.00
4735;BME280;2381;50.676;12.612;2022-10-13T16:25:28;97460.53;;;13.56;100.00
4735;BME280;2381;50.676;12.612;2022-10-13T16:28:32;97465.44;;;13.59;100.00
4735;BME280;2381;50.676;12.612;2022-10-13T16:31:37;97461.09;;;13.45;100.00